createdAt,value
2024-02-27T00:01:30.450Z,4.95
2024-02-27T00:04:06.186Z,5.00
2024-02-27T00:06:39.630Z,4.75
2024-02-27T00:09:17.036Z,4.72
2024-02-27T00:11:55.399Z,4.67
2024-02-27T00:14:31.172Z,4.68
2024-02-27T00:17:04.457Z,4.76
2024-02-27T00:19:44.336Z,4.79
2024-02-27T00:22:20.369Z,4.78
2024-02-27T00:24:58.037Z,4.93
2024-02-27T00:27:36.636Z,4.92
2024-02-27T00:30:21.549Z,4.76
2024-02-27T00:32:52.227Z,4.67
2024-02-27T00:35:31.677Z,4.74
2024-02-27T00:38:10.709Z,4.81
2024-02-27T00:40:49.609Z,4.71
2024-02-27T00:43:34.094Z,4.67
2024-02-27T00:46:03.473Z,4.08
2024-02-27T00:48:32.969Z,4.07
2024-02-27T00:51:03.643Z,3.90
2024-02-27T00:53:40.760Z,4.49
2024-02-27T00:56:17.167Z,4.54
2024-02-27T00:58:52.409Z,4.51
2024-02-27T01:01:27.705Z,4.60
2024-02-27T01:04:05.472Z,4.61
2024-02-27T01:06:40.971Z,4.51
2024-02-27T01:09:14.658Z,4.54
2024-02-27T01:12:01.290Z,4.53
2024-02-27T01:14:35.652Z,4.59
2024-02-27T01:17:19.832Z,4.64
2024-02-27T01:19:56.844Z,4.67
2024-02-27T01:22:34.362Z,4.62
2024-02-27T01:25:08.340Z,4.51
2024-02-27T01:27:38.398Z,4.70
2024-02-27T01:30:23.466Z,4.59
2024-02-27T01:33:00.051Z,4.79
2024-02-27T01:35:41.774Z,4.67
2024-02-27T01:38:15.302Z,4.68
2024-02-27T01:40:49.693Z,4.79
2024-02-27T01:43:29.008Z,4.83
2024-02-27T01:46:20.325Z,4.76
2024-02-27T01:49:02.386Z,4.71
2024-02-27T01:51:39.599Z,4.86
2024-02-27T01:54:17.018Z,4.84
2024-02-27T01:56:55.246Z,4.83
2024-02-27T01:59:26.638Z,4.91
2024-02-27T02:01:57.338Z,4.96
2024-02-27T02:04:29.537Z,4.98
2024-02-27T02:07:09.003Z,4.92
2024-02-27T02:09:40.734Z,5.05
2024-02-27T02:12:19.399Z,5.04
2024-02-27T02:14:55.043Z,4.96
2024-02-27T02:17:28.990Z,4.74
2024-02-27T02:20:00.059Z,4.81
2024-02-27T02:22:35.674Z,4.82
2024-02-27T02:25:19.693Z,4.81
2024-02-27T02:27:53.388Z,4.87
2024-02-27T02:30:26.799Z,4.84
2024-02-27T02:33:01.214Z,4.87
2024-02-27T02:35:46.569Z,4.80
2024-02-27T02:38:20.786Z,4.77
2024-02-27T02:40:50.872Z,4.76
2024-02-27T02:43:28.770Z,4.78
2024-02-27T02:45:59.548Z,4.80
2024-02-27T02:48:42.537Z,4.59
2024-02-27T02:51:11.798Z,4.50
2024-02-27T02:53:40.408Z,4.59
2024-02-27T02:56:22.713Z,4.47
2024-02-27T02:59:01.050Z,4.33
2024-02-27T03:01:30.462Z,4.45
2024-02-27T03:04:06.226Z,4.51
2024-02-27T03:06:40.775Z,4.31
2024-02-27T03:09:10.863Z,4.16
2024-02-27T03:11:48.026Z,4.16
2024-02-27T03:14:21.186Z,4.38
2024-02-27T03:17:07.740Z,4.50
2024-02-27T03:19:43.615Z,4.39
2024-02-27T03:22:16.754Z,4.37
2024-02-27T03:24:53.021Z,4.45
2024-02-27T03:27:24.063Z,4.48
2024-02-27T03:30:03.723Z,4.50
2024-02-27T03:32:39.328Z,4.58
2024-02-27T03:35:14.080Z,4.46
2024-02-27T03:37:53.469Z,4.41
2024-02-27T03:40:26.692Z,4.66
2024-02-27T03:42:59.609Z,4.62
2024-02-27T03:45:30.798Z,4.46
2024-02-27T03:48:11.902Z,4.56
2024-02-27T03:50:51.931Z,4.62
2024-02-27T03:53:23.801Z,4.45
2024-02-27T03:55:57.523Z,4.54
2024-02-27T03:58:38.545Z,4.62
2024-02-27T04:01:07.648Z,4.65
2024-02-27T04:03:40.146Z,4.55
2024-02-27T04:06:18.627Z,4.54
2024-02-27T04:08:56.202Z,4.47
2024-02-27T04:11:28.706Z,4.68
2024-02-27T04:14:03.908Z,4.60
2024-02-27T04:16:38.487Z,4.59
2024-02-27T04:19:12.145Z,4.62
2024-02-27T04:21:56.237Z,4.67
2024-02-27T04:24:30.251Z,4.67
2024-02-27T04:27:07.800Z,4.68
2024-02-27T04:29:40.247Z,4.58
2024-02-27T04:32:10.973Z,4.60
2024-02-27T04:34:44.151Z,4.60
2024-02-27T04:37:12.743Z,4.55
2024-02-27T04:39:49.572Z,4.41
2024-02-27T04:42:28.114Z,4.31
2024-02-27T04:45:02.594Z,4.49
2024-02-27T04:47:34.616Z,4.09
2024-02-27T04:50:05.416Z,4.43
2024-02-27T04:52:36.557Z,3.91
2024-02-27T04:55:09.387Z,4.44
2024-02-27T04:57:45.389Z,4.43
2024-02-27T05:00:23.651Z,4.36
2024-02-27T05:03:01.485Z,4.25
2024-02-27T05:05:30.206Z,4.17
2024-02-27T05:08:07.768Z,4.19
2024-02-27T05:10:37.859Z,4.16
2024-02-27T05:13:19.137Z,3.85
2024-02-27T05:15:51.612Z,4.12
2024-02-27T05:18:28.850Z,4.06
2024-02-27T05:21:00.239Z,4.04
2024-02-27T05:23:32.316Z,4.00
2024-02-27T05:26:07.781Z,4.01
2024-02-27T05:28:41.089Z,4.02
2024-02-27T05:31:32.698Z,3.93
2024-02-27T05:34:04.908Z,4.09
2024-02-27T05:36:41.911Z,4.07
2024-02-27T05:39:12.685Z,4.11
2024-02-27T05:41:45.226Z,4.20
2024-02-27T05:44:18.223Z,4.31
2024-02-27T05:46:51.272Z,4.13
2024-02-27T05:49:31.253Z,4.08
2024-02-27T05:52:09.595Z,4.19
2024-02-27T05:54:41.903Z,4.31
2024-02-27T05:57:23.265Z,4.37
2024-02-27T06:00:00.548Z,4.33
2024-02-27T06:02:31.627Z,4.42
2024-02-27T06:05:06.321Z,4.46
2024-02-27T06:07:39.575Z,4.49
2024-02-27T06:10:13.914Z,4.45
2024-02-27T06:12:46.072Z,4.35
2024-02-27T06:15:23.893Z,4.47
2024-02-27T06:18:02.006Z,4.48
2024-02-27T06:20:53.331Z,4.48
2024-02-27T06:23:27.892Z,4.53
2024-02-27T06:26:07.915Z,4.48
2024-02-27T06:28:45.092Z,4.49
2024-02-27T06:31:20.261Z,4.67
2024-02-27T06:34:02.477Z,4.74
2024-02-27T06:36:43.363Z,4.76
2024-02-27T06:39:17.749Z,4.90
2024-02-27T06:41:58.594Z,4.80
2024-02-27T06:44:37.475Z,4.87
2024-02-27T06:47:14.664Z,4.96
2024-02-27T06:49:47.828Z,5.05
2024-02-27T06:52:21.845Z,4.95
2024-02-27T06:54:55.228Z,5.15
2024-02-27T06:57:28.509Z,5.07
2024-02-27T07:00:08.188Z,5.09
2024-02-27T07:02:38.713Z,5.01
2024-02-27T07:05:17.090Z,4.85
2024-02-27T07:07:57.939Z,5.30
2024-02-27T07:10:33.897Z,5.31
2024-02-27T07:13:10.537Z,5.19
2024-02-27T07:15:46.942Z,5.43
2024-02-27T07:18:21.152Z,5.47
2024-02-27T07:20:51.527Z,5.53
2024-02-27T07:23:29.835Z,5.40
2024-02-27T07:26:08.091Z,5.48
2024-02-27T07:28:47.221Z,5.57
2024-02-27T07:31:28.848Z,5.66
2024-02-27T07:34:11.008Z,5.74
2024-02-27T07:36:46.316Z,5.82
2024-02-27T07:39:20.627Z,5.78
2024-02-27T07:41:59.156Z,5.90
2024-02-27T07:44:36.806Z,5.91
2024-02-27T07:47:18.983Z,5.85
2024-02-27T07:49:55.614Z,5.92
2024-02-27T07:52:37.122Z,6.02
2024-02-27T07:55:11.053Z,5.97
2024-02-27T07:57:48.113Z,6.00
2024-02-27T08:00:24.317Z,6.01
2024-02-27T08:02:55.925Z,6.09
2024-02-27T08:05:28.317Z,5.98
2024-02-27T08:08:00.518Z,6.17
2024-02-27T08:10:34.662Z,6.12
2024-02-27T08:13:06.729Z,6.09
2024-02-27T08:15:41.906Z,6.08
2024-02-27T08:18:19.294Z,6.21
2024-02-27T08:20:58.406Z,6.12
2024-02-27T08:23:32.922Z,6.34
2024-02-27T08:26:06.361Z,6.20
2024-02-27T08:31:22.813Z,6.25
2024-02-27T08:34:01.140Z,6.53
2024-02-27T08:36:37.281Z,6.58
2024-02-27T08:39:16.604Z,6.54
2024-02-27T08:41:50.054Z,6.59
2024-02-27T08:44:21.968Z,6.60
2024-02-27T08:47:06.257Z,6.61
2024-02-27T08:49:42.238Z,6.59
2024-02-27T08:52:13.568Z,6.67
2024-02-27T08:54:46.965Z,6.81
2024-02-27T09:00:22.461Z,6.90
2024-02-27T09:03:01.551Z,6.94
2024-02-27T09:05:33.599Z,7.03
2024-02-27T09:08:13.516Z,7.10
2024-02-27T09:10:48.873Z,7.19
2024-02-27T09:13:25.582Z,7.20
2024-02-27T09:15:56.446Z,7.32
2024-02-27T09:21:16.514Z,7.33
2024-02-27T09:23:50.802Z,7.46
2024-02-27T09:26:21.817Z,7.38
2024-02-27T09:28:54.495Z,7.40
2024-02-27T09:31:32.864Z,7.34
2024-02-27T09:34:07.723Z,7.30
2024-02-27T09:36:47.959Z,7.40
2024-02-27T09:39:22.608Z,7.51
2024-02-27T09:42:12.060Z,7.49
2024-02-27T09:44:43.577Z,7.49
2024-02-27T09:47:19.941Z,7.50
2024-02-27T09:50:02.221Z,7.35
2024-02-27T09:52:40.361Z,7.39
2024-02-27T09:55:26.612Z,7.38
2024-02-27T09:58:01.596Z,7.60
2024-02-27T10:00:49.273Z,7.61
2024-02-27T10:03:21.082Z,7.63
2024-02-27T10:05:55.207Z,7.73
2024-02-27T10:08:27.831Z,7.42
2024-02-27T10:11:09.245Z,7.74
2024-02-27T10:13:38.707Z,7.84
2024-02-27T10:16:15.652Z,7.87
2024-02-27T10:18:47.533Z,7.79
2024-02-27T10:21:24.850Z,7.71
2024-02-27T10:24:00.254Z,7.80
2024-02-27T10:26:37.225Z,7.75
2024-02-27T10:29:09.469Z,7.82
2024-02-27T10:31:48.708Z,7.95
2024-02-27T10:34:26.361Z,8.01
2024-02-27T10:37:09.445Z,8.03
2024-02-27T10:39:42.663Z,8.03
2024-02-27T10:42:16.028Z,8.10
2024-02-27T10:44:55.179Z,8.00
2024-02-27T10:47:30.751Z,8.08
2024-02-27T10:50:08.280Z,8.15
2024-02-27T10:52:51.897Z,8.21
2024-02-27T10:55:31.058Z,8.22
2024-02-27T10:58:10.327Z,8.21
2024-02-27T11:00:45.391Z,7.99
2024-02-27T11:03:23.098Z,8.08
2024-02-27T11:05:59.452Z,7.99
2024-02-27T11:08:38.537Z,8.21
2024-02-27T11:11:18.122Z,8.03
2024-02-27T11:14:00.337Z,8.26
2024-02-27T11:16:38.397Z,8.34
2024-02-27T11:19:26.996Z,8.26
2024-02-27T11:22:09.003Z,8.28
2024-02-27T11:24:44.361Z,8.38
2024-02-27T11:27:35.925Z,8.60
2024-02-27T11:30:14.172Z,8.57
2024-02-27T11:32:44.284Z,8.63
2024-02-27T11:35:20.249Z,8.58
2024-02-27T11:37:51.694Z,8.51
2024-02-27T11:40:56.393Z,8.49
2024-02-27T11:43:34.973Z,8.62
2024-02-27T11:46:40.034Z,8.62
2024-02-27T11:49:15.003Z,8.71
2024-02-27T11:51:49.024Z,8.64
2024-02-27T11:54:38.260Z,8.49
2024-02-27T11:57:19.383Z,8.66
2024-02-27T11:59:52.822Z,8.31
2024-02-27T12:02:28.249Z,8.77
2024-02-27T12:05:08.942Z,8.78
2024-02-27T12:07:43.576Z,8.79
2024-02-27T12:10:17.524Z,8.86
2024-02-27T12:13:01.471Z,8.77
2024-02-27T12:15:32.022Z,8.93
2024-02-27T12:18:04.616Z,8.94
2024-02-27T12:20:38.730Z,8.98
2024-02-27T12:23:18.188Z,9.05
2024-02-27T12:25:56.127Z,9.31
2024-02-27T12:28:40.715Z,9.21
2024-02-27T12:31:20.934Z,9.28
2024-02-27T12:33:56.585Z,9.32
2024-02-27T12:36:35.769Z,9.38
2024-02-27T12:39:08.071Z,9.52
2024-02-27T12:41:47.373Z,9.70
2024-02-27T12:44:25.091Z,9.66
2024-02-27T12:47:12.293Z,9.49
2024-02-27T12:49:52.518Z,9.69
2024-02-27T12:52:23.441Z,9.71
2024-02-27T12:55:02.710Z,9.69
2024-02-27T12:57:38.385Z,9.57
2024-02-27T13:00:22.421Z,9.58
2024-02-27T13:02:57.684Z,9.59
2024-02-27T13:05:30.730Z,9.67
2024-02-27T13:08:03.880Z,9.66
2024-02-27T13:10:47.572Z,9.51
2024-02-27T13:13:25.867Z,9.46
2024-02-27T13:16:24.327Z,9.41
2024-02-27T13:18:59.563Z,9.45
2024-02-27T13:21:36.140Z,9.43
2024-02-27T13:24:16.514Z,9.41
2024-02-27T13:26:55.632Z,9.51
2024-02-27T13:29:33.774Z,9.68
2024-02-27T13:32:03.784Z,9.62
2024-02-27T13:34:44.803Z,9.50
2024-02-27T13:37:20.505Z,9.58
2024-02-27T13:40:05.176Z,9.65
2024-02-27T13:42:41.388Z,9.67
2024-02-27T13:45:16.514Z,9.66
2024-02-27T13:47:48.692Z,9.66
2024-02-27T13:50:27.524Z,9.64
2024-02-27T13:52:59.937Z,9.69
2024-02-27T13:55:40.922Z,9.59
2024-02-27T13:58:13.923Z,9.58
2024-02-27T14:00:49.056Z,9.43
2024-02-27T14:03:26.067Z,9.64
2024-02-27T14:05:56.499Z,9.62
2024-02-27T14:08:28.951Z,9.69
2024-02-27T14:11:12.909Z,9.58
2024-02-27T14:13:47.999Z,9.56
2024-02-27T14:16:21.870Z,9.67
2024-02-27T14:18:54.379Z,9.59
2024-02-27T14:21:25.863Z,9.59
2024-02-27T14:24:17.613Z,9.57
2024-02-27T14:26:52.301Z,9.60
2024-02-27T14:29:21.860Z,9.56
2024-02-27T14:31:51.110Z,9.51
2024-02-27T14:34:36.272Z,9.57
2024-02-27T14:37:10.697Z,9.50
2024-02-27T14:39:41.100Z,9.29
2024-02-27T14:42:13.537Z,9.35
2024-02-27T14:44:47.187Z,9.35
2024-02-27T14:47:26.741Z,9.36
2024-02-27T14:50:14.066Z,9.38
2024-02-27T14:52:58.328Z,9.27
2024-02-27T14:55:44.525Z,9.22
2024-02-27T14:58:19.871Z,9.23
2024-02-27T15:00:54.886Z,9.24
2024-02-27T15:03:30.937Z,8.91
2024-02-27T15:06:04.630Z,8.95
2024-02-27T15:11:25.712Z,9.07
2024-02-27T15:14:13.218Z,9.19
2024-02-27T15:16:45.916Z,9.21
2024-02-27T15:19:21.638Z,9.22
2024-02-27T15:22:00.437Z,9.15
2024-02-27T15:24:32.367Z,9.18
2024-02-27T15:29:53.882Z,9.05
2024-02-27T15:32:28.160Z,9.15
2024-02-27T15:35:23.104Z,8.99
2024-02-27T15:37:56.542Z,9.02
2024-02-27T15:40:32.155Z,9.00
2024-02-27T15:43:18.134Z,8.96
2024-02-27T15:46:09.308Z,8.92
2024-02-27T15:48:55.278Z,8.77
2024-02-27T15:54:24.234Z,8.86
2024-02-27T15:57:01.515Z,8.74
2024-02-27T15:59:39.977Z,8.89
2024-02-27T16:02:19.438Z,8.94
2024-02-27T16:05:00.723Z,8.78
2024-02-27T16:07:43.222Z,8.69
2024-02-27T16:10:12.365Z,8.76
2024-02-27T16:12:41.584Z,8.70
2024-02-27T16:15:12.813Z,8.73
2024-02-27T16:17:48.514Z,8.72
2024-02-27T16:20:25.725Z,8.81
2024-02-27T16:23:02.093Z,8.81
2024-02-27T16:25:37.786Z,8.71
2024-02-27T16:28:09.166Z,8.61
2024-02-27T16:30:51.533Z,8.69
2024-02-27T16:33:27.153Z,8.71
2024-02-27T16:36:05.351Z,8.63
2024-02-27T16:38:48.161Z,8.71
2024-02-27T16:41:28.008Z,8.62
2024-02-27T16:44:00.734Z,8.54
2024-02-27T16:46:35.741Z,8.47
2024-02-27T16:49:08.147Z,8.50
2024-02-27T16:51:49.815Z,8.45
2024-02-27T16:54:23.019Z,8.35
2024-02-27T16:56:56.588Z,8.42
2024-02-27T16:59:32.675Z,8.48
2024-02-27T17:02:06.037Z,8.40
2024-02-27T17:04:49.331Z,8.35
2024-02-27T17:07:28.538Z,8.42
2024-02-27T17:10:08.471Z,8.38
2024-02-27T17:12:43.761Z,8.38
2024-02-27T17:15:15.456Z,8.35
2024-02-27T17:17:49.164Z,8.36
2024-02-27T17:20:22.315Z,8.39
2024-02-27T17:22:57.783Z,8.39
2024-02-27T17:25:31.760Z,8.34
2024-02-27T17:28:04.009Z,8.34
2024-02-27T17:30:32.732Z,8.31
2024-02-27T17:33:02.944Z,8.27
2024-02-27T17:35:36.269Z,8.26
2024-02-27T17:38:10.162Z,8.26
2024-02-27T17:40:50.067Z,8.31
2024-02-27T17:43:32.245Z,8.32
2024-02-27T17:49:05.063Z,8.31
2024-02-27T17:51:48.765Z,8.28
2024-02-27T17:54:27.181Z,8.22
2024-02-27T17:57:03.971Z,8.26
2024-02-27T17:59:40.075Z,8.34
2024-02-27T18:02:11.495Z,8.31
2024-02-27T18:04:50.389Z,8.26
2024-02-27T18:07:26.510Z,8.28
2024-02-27T18:09:57.968Z,8.28
2024-02-27T18:12:43.209Z,8.25
2024-02-27T18:15:17.150Z,8.32
2024-02-27T18:20:47.809Z,7.99
2024-02-27T18:23:27.056Z,8.21
2024-02-27T18:25:59.770Z,8.03
2024-02-27T18:28:34.561Z,8.20
2024-02-27T18:31:21.927Z,8.23
2024-02-27T18:33:54.569Z,8.20
2024-02-27T18:36:30.803Z,8.28
2024-02-27T18:39:15.580Z,8.32
2024-02-27T18:41:51.922Z,8.33
2024-02-27T18:44:20.223Z,8.25
2024-02-27T18:46:48.568Z,8.20
2024-02-27T18:49:23.694Z,8.27
2024-02-27T18:51:56.418Z,8.22
2024-02-27T18:54:28.688Z,8.23
2024-02-27T18:56:59.908Z,8.27
2024-02-27T18:59:30.334Z,8.32
2024-02-27T19:02:09.365Z,8.32
2024-02-27T19:04:44.796Z,8.33
2024-02-27T19:07:22.720Z,8.31
2024-02-27T19:09:56.615Z,8.35
2024-02-27T19:12:33.995Z,8.34
2024-02-27T19:15:09.661Z,8.37
2024-02-27T19:17:46.256Z,8.32
2024-02-27T19:20:19.344Z,8.26
2024-02-27T19:22:48.677Z,8.26
2024-02-27T19:25:22.984Z,8.22
2024-02-27T19:27:52.632Z,8.27
2024-02-27T19:30:25.626Z,8.29
2024-02-27T19:32:59.820Z,8.29
2024-02-27T19:35:38.738Z,8.19
2024-02-27T19:38:18.784Z,8.23
2024-02-27T19:40:55.496Z,8.20
2024-02-27T19:43:32.882Z,8.19
2024-02-27T19:46:11.815Z,8.15
2024-02-27T19:48:50.492Z,8.18
2024-02-27T19:51:23.519Z,8.07
2024-02-27T19:54:00.604Z,8.05
2024-02-27T19:56:42.150Z,8.11
2024-02-27T19:59:19.385Z,8.03
2024-02-27T20:02:07.532Z,8.05
2024-02-27T20:04:46.157Z,8.17
2024-02-27T20:07:18.067Z,8.04
2024-02-27T20:10:00.202Z,8.17
2024-02-27T20:12:52.865Z,8.18
2024-02-27T20:15:28.097Z,8.17
2024-02-27T20:18:01.415Z,8.20
2024-02-27T20:20:43.140Z,8.14
2024-02-27T20:23:15.120Z,8.11
2024-02-27T20:25:52.547Z,8.06
2024-02-27T20:28:22.036Z,8.10
2024-02-27T20:30:57.207Z,8.07
2024-02-27T20:33:31.517Z,8.06
2024-02-27T20:36:03.658Z,8.02
2024-02-27T20:38:40.689Z,7.97
2024-02-27T20:41:18.869Z,7.87
2024-02-27T20:43:56.862Z,7.86
2024-02-27T20:46:28.507Z,7.76
2024-02-27T20:49:07.472Z,7.90
2024-02-27T20:51:38.225Z,7.93
2024-02-27T20:54:13.268Z,7.86
2024-02-27T20:56:46.268Z,7.87
2024-02-27T20:59:19.596Z,7.94
2024-02-27T21:01:49.241Z,7.84
2024-02-27T21:04:25.668Z,7.79
2024-02-27T21:09:37.963Z,7.88
2024-02-27T21:12:19.814Z,7.93
2024-02-27T21:14:59.007Z,7.92
2024-02-27T21:20:21.511Z,7.84
2024-02-27T21:22:55.501Z,7.81
2024-02-27T21:25:27.956Z,7.89
2024-02-27T21:28:10.001Z,7.79
2024-02-27T21:30:43.500Z,7.80
2024-02-27T21:33:20.689Z,7.83
2024-02-27T21:35:56.428Z,7.84
2024-02-27T21:38:44.959Z,7.90
2024-02-27T21:41:19.780Z,7.85
2024-02-27T21:43:56.979Z,7.82
2024-02-27T21:46:36.380Z,7.87
2024-02-27T21:49:08.350Z,7.88
2024-02-27T21:51:46.154Z,7.78
2024-02-27T21:54:20.049Z,7.76
2024-02-27T21:56:56.467Z,7.36
2024-02-27T21:59:28.645Z,7.46
2024-02-27T22:02:04.185Z,7.64
2024-02-27T22:04:46.113Z,7.71
2024-02-27T22:07:25.429Z,7.65
2024-02-27T22:10:06.740Z,7.60
2024-02-27T22:12:49.575Z,7.55
2024-02-27T22:15:24.502Z,7.57
2024-02-27T22:18:06.540Z,7.47
2024-02-27T22:20:46.077Z,7.51
2024-02-27T22:23:19.026Z,7.45
2024-02-27T22:25:52.998Z,7.45
2024-02-27T22:28:25.167Z,7.55
2024-02-27T22:30:55.905Z,7.44
2024-02-27T22:33:31.141Z,7.41
2024-02-27T22:36:06.522Z,7.41
2024-02-27T22:38:40.025Z,7.41
2024-02-27T22:41:22.873Z,7.39
2024-02-27T22:43:54.159Z,7.34
2024-02-27T22:46:26.960Z,7.34
2024-02-27T22:49:06.574Z,7.14
2024-02-27T22:51:49.281Z,7.48
2024-02-27T22:54:25.833Z,7.47
2024-02-27T22:57:10.376Z,7.39
2024-02-27T22:59:44.644Z,7.44
2024-02-27T23:02:22.869Z,7.39
2024-02-27T23:04:51.201Z,7.45
2024-02-27T23:07:35.279Z,7.44
2024-02-27T23:10:09.593Z,7.53
2024-02-27T23:12:41.671Z,7.54
2024-02-27T23:15:14.999Z,7.45
2024-02-27T23:18:00.307Z,7.45
2024-02-27T23:20:30.584Z,7.50
2024-02-27T23:23:01.761Z,7.52
2024-02-27T23:25:32.304Z,7.61
2024-02-27T23:28:06.585Z,7.47
2024-02-27T23:30:39.176Z,7.47
2024-02-27T23:33:10.172Z,7.51
2024-02-27T23:35:47.349Z,7.53
2024-02-27T23:38:25.556Z,7.53
2024-02-27T23:41:05.491Z,7.46
2024-02-27T23:43:38.498Z,7.40
2024-02-27T23:46:13.855Z,7.50
2024-02-27T23:49:04.722Z,7.48
2024-02-27T23:51:45.215Z,7.47
2024-02-27T23:54:21.520Z,7.63
2024-02-27T23:57:00.751Z,7.69
2024-02-27T23:59:37.622Z,7.63
